createdAt,value
2023-03-24T00:01:08.154Z,5.57
2023-03-24T00:03:36.704Z,5.90
2023-03-24T00:06:05.659Z,4.13
2023-03-24T00:08:36.550Z,9.95
2023-03-24T00:11:08.724Z,5.43
2023-03-24T00:13:39.231Z,4.63
2023-03-24T00:16:09.257Z,7.32
2023-03-24T00:18:37.748Z,5.90
2023-03-24T00:21:06.724Z,4.43
2023-03-24T00:23:34.818Z,3.92
2023-03-24T00:26:02.827Z,5.60
2023-03-24T00:28:33.558Z,4.32
2023-03-24T00:31:02.058Z,4.50
2023-03-24T00:33:35.523Z,4.00
2023-03-24T00:36:07.173Z,5.50
2023-03-24T00:38:35.345Z,7.93
2023-03-24T00:41:02.561Z,4.85
2023-03-24T00:43:30.489Z,3.63
2023-03-24T00:46:10.927Z,3.63
2023-03-24T00:48:38.664Z,7.95
2023-03-24T00:51:10.839Z,3.30
2023-03-24T00:53:43.797Z,5.38
2023-03-24T00:56:15.477Z,4.15
2023-03-24T00:58:42.812Z,3.67
2023-03-24T01:01:09.535Z,4.82
2023-03-24T01:03:43.366Z,5.45
2023-03-24T01:06:11.356Z,3.80
2023-03-24T01:08:38.907Z,7.47
2023-03-24T01:11:06.523Z,3.83
2023-03-24T01:13:34.542Z,8.27
2023-03-24T01:16:01.592Z,3.85
2023-03-24T01:18:28.942Z,3.63
2023-03-24T01:20:55.956Z,7.65
2023-03-24T01:23:26.179Z,4.32
2023-03-24T01:25:54.128Z,5.60
2023-03-24T01:28:25.331Z,4.72
2023-03-24T01:30:53.326Z,3.40
2023-03-24T01:33:21.641Z,6.88
2023-03-24T01:35:48.795Z,5.53
2023-03-24T01:38:16.383Z,5.85
2023-03-24T01:40:46.663Z,4.00
2023-03-24T01:43:31.424Z,8.02
2023-03-24T01:46:08.556Z,6.40
2023-03-24T01:48:41.942Z,6.93
2023-03-24T01:53:57.681Z,4.97
2023-03-24T01:56:26.354Z,5.90
2023-03-24T01:59:08.027Z,5.32
2023-03-24T02:01:41.766Z,4.70
2023-03-24T02:04:38.931Z,4.07
2023-03-24T02:07:38.029Z,10.48
2023-03-24T02:10:09.095Z,4.18
2023-03-24T02:12:36.705Z,6.95
2023-03-24T02:15:06.989Z,5.40
2023-03-24T02:18:09.077Z,5.28
2023-03-24T02:21:00.526Z,5.15
2023-03-24T02:23:55.927Z,6.60
2023-03-24T02:26:57.814Z,5.07
2023-03-24T02:29:40.230Z,6.70
2023-03-24T02:32:33.675Z,5.55
2023-03-24T02:35:03.890Z,9.57
2023-03-24T02:37:45.104Z,6.00
2023-03-24T02:40:30.861Z,6.65
2023-03-24T02:43:07.533Z,5.97
2023-03-24T02:45:44.461Z,8.10
2023-03-24T02:48:23.164Z,7.38
2023-03-24T02:51:12.173Z,5.57
2023-03-24T02:54:07.600Z,5.80
2023-03-24T02:59:38.596Z,7.00
2023-03-24T03:02:30.442Z,4.43
2023-03-24T03:05:44.583Z,3.60
2023-03-24T03:08:17.260Z,6.57
2023-03-24T03:10:48.824Z,3.72
2023-03-24T03:13:40.361Z,4.10
2023-03-24T03:16:26.134Z,3.83
2023-03-24T03:19:01.186Z,8.88
2023-03-24T03:21:33.283Z,4.45
2023-03-24T03:24:09.335Z,4.88
2023-03-24T03:26:36.877Z,5.32
2023-03-24T03:29:19.712Z,4.13
2023-03-24T03:34:42.279Z,5.13
2023-03-24T03:37:41.349Z,5.60
2023-03-24T03:40:38.363Z,5.07
2023-03-24T03:43:15.307Z,13.57
2023-03-24T03:45:43.065Z,7.63
2023-03-24T03:48:10.809Z,6.03
2023-03-24T03:50:39.302Z,5.68
2023-03-24T03:53:08.520Z,4.68
2023-03-24T03:55:36.732Z,5.00
2023-03-24T03:58:04.564Z,5.03
2023-03-24T04:00:38.397Z,6.05
2023-03-24T04:03:46.124Z,4.80
2023-03-24T04:06:34.325Z,6.28
2023-03-24T04:09:19.744Z,7.18
2023-03-24T04:12:04.357Z,5.80
2023-03-24T04:14:42.917Z,6.35
2023-03-24T04:18:06.391Z,9.10
2023-03-24T04:21:23.347Z,5.20
2023-03-24T04:24:11.042Z,6.55
2023-03-24T04:26:48.716Z,7.40
2023-03-24T04:29:29.848Z,5.72
2023-03-24T04:32:03.244Z,5.03
2023-03-24T04:34:37.118Z,5.22
2023-03-24T04:37:32.937Z,4.30
2023-03-24T04:40:07.356Z,8.20
2023-03-24T04:42:55.315Z,5.03
2023-03-24T04:45:27.543Z,5.65
2023-03-24T04:48:14.030Z,5.65
2023-03-24T04:51:03.464Z,4.63
2023-03-24T04:53:46.444Z,4.88
2023-03-24T04:56:26.075Z,5.10
2023-03-24T04:59:21.927Z,6.53
2023-03-24T05:01:50.398Z,3.03
2023-03-24T05:04:39.952Z,5.55
2023-03-24T05:07:27.392Z,4.93
2023-03-24T05:09:58.114Z,5.15
2023-03-24T05:12:25.439Z,5.35
2023-03-24T05:15:11.189Z,5.90
2023-03-24T05:17:39.318Z,6.85
2023-03-24T05:20:10.638Z,6.57
2023-03-24T05:22:39.914Z,5.72
2023-03-24T05:25:06.845Z,4.05
2023-03-24T05:27:34.227Z,9.45
2023-03-24T05:30:13.004Z,5.85
2023-03-24T05:32:41.176Z,3.45
2023-03-24T05:35:08.490Z,8.75
2023-03-24T05:37:36.007Z,4.38
2023-03-24T05:40:04.149Z,6.35
2023-03-24T05:42:50.533Z,8.70
2023-03-24T05:45:18.340Z,11.38
2023-03-24T05:47:47.920Z,14.77
2023-03-24T05:50:17.684Z,10.55
2023-03-24T05:52:46.384Z,15.27
2023-03-24T05:55:40.018Z,19.27
2023-03-24T05:58:25.209Z,14.65
2023-03-24T06:00:57.317Z,16.80
2023-03-24T06:03:34.665Z,14.48
2023-03-24T06:06:14.971Z,14.43
2023-03-24T06:08:44.723Z,12.20
2023-03-24T06:11:12.976Z,8.75
2023-03-24T06:13:49.690Z,8.63
2023-03-24T06:16:19.095Z,13.02
2023-03-24T06:18:53.986Z,14.65
2023-03-24T06:21:44.911Z,17.83
2023-03-24T06:24:14.679Z,13.20
2023-03-24T06:26:44.770Z,20.35
2023-03-24T06:29:12.767Z,12.40
2023-03-24T06:31:40.751Z,14.65
2023-03-24T06:34:07.764Z,14.13
2023-03-24T06:36:35.061Z,13.27
2023-03-24T06:39:03.815Z,11.48
2023-03-24T06:41:31.553Z,14.20
2023-03-24T06:44:00.850Z,9.27
2023-03-24T06:46:28.488Z,12.45
2023-03-24T06:48:55.614Z,14.20
2023-03-24T06:51:23.398Z,13.07
2023-03-24T06:53:50.032Z,14.88
2023-03-24T06:56:20.139Z,18.08
2023-03-24T06:58:55.401Z,14.85
2023-03-24T07:01:27.499Z,15.38
2023-03-24T07:03:57.209Z,13.43
2023-03-24T07:06:24.470Z,16.73
2023-03-24T07:08:54.424Z,15.70
2023-03-24T07:11:24.579Z,11.30
2023-03-24T07:13:57.741Z,12.93
2023-03-24T07:16:26.511Z,12.65
2023-03-24T07:19:02.712Z,13.48
2023-03-24T07:21:34.175Z,15.30
2023-03-24T07:24:02.095Z,9.88
2023-03-24T07:26:35.851Z,15.82
2023-03-24T07:29:17.078Z,11.65
2023-03-24T07:32:04.599Z,15.55
2023-03-24T07:34:31.903Z,13.00
2023-03-24T07:37:00.684Z,15.55
2023-03-24T07:39:28.420Z,21.90
2023-03-24T07:41:56.148Z,17.67
2023-03-24T07:44:36.223Z,13.15
2023-03-24T07:47:03.441Z,13.82
2023-03-24T07:49:30.462Z,9.75
2023-03-24T07:52:09.505Z,17.55
2023-03-24T07:54:38.663Z,16.08
2023-03-24T07:57:06.138Z,24.10
2023-03-24T07:59:34.225Z,25.35
2023-03-24T08:02:18.102Z,16.30
2023-03-24T08:04:57.557Z,19.10
2023-03-24T08:07:50.678Z,16.20
2023-03-24T08:10:17.889Z,22.60
2023-03-24T08:12:44.551Z,19.65
2023-03-24T08:15:11.548Z,14.63
2023-03-24T08:17:39.325Z,19.20
2023-03-24T08:20:12.037Z,19.67
2023-03-24T08:22:41.441Z,22.92
2023-03-24T08:25:11.190Z,13.68
2023-03-24T08:27:40.291Z,21.10
2023-03-24T08:30:10.756Z,18.13
2023-03-24T08:32:37.542Z,16.13
2023-03-24T08:35:04.981Z,22.63
2023-03-24T08:37:32.369Z,17.05
2023-03-24T08:40:05.270Z,20.58
2023-03-24T08:42:32.585Z,21.75
2023-03-24T08:44:59.177Z,16.35
2023-03-24T08:47:26.607Z,18.50
2023-03-24T08:49:57.618Z,15.50
2023-03-24T08:52:25.950Z,20.65
2023-03-24T08:54:53.118Z,20.17
2023-03-24T08:57:21.840Z,18.38
2023-03-24T08:59:51.448Z,20.33
2023-03-24T09:02:18.778Z,22.67
2023-03-24T09:04:45.833Z,13.38
2023-03-24T09:07:13.183Z,19.10
2023-03-24T09:09:40.029Z,25.45
2023-03-24T09:12:08.006Z,18.02
2023-03-24T09:14:34.603Z,20.85
2023-03-24T09:17:01.603Z,14.50
2023-03-24T09:19:28.371Z,17.55
2023-03-24T09:21:55.672Z,20.23
2023-03-24T09:24:22.295Z,17.85
2023-03-24T09:26:49.541Z,16.90
2023-03-24T09:29:16.146Z,19.77
2023-03-24T09:31:43.381Z,26.17
2023-03-24T09:34:10.266Z,14.07
2023-03-24T09:36:37.559Z,20.65
2023-03-24T09:39:04.343Z,22.15
2023-03-24T09:41:34.385Z,17.45
2023-03-24T09:44:15.888Z,17.58
2023-03-24T09:46:48.615Z,18.27
2023-03-24T09:49:28.588Z,16.15
2023-03-24T09:52:19.612Z,19.80
2023-03-24T09:54:57.313Z,14.82
2023-03-24T09:57:51.924Z,14.40
2023-03-24T10:00:28.061Z,15.57
2023-03-24T10:03:23.596Z,13.90
2023-03-24T10:06:05.302Z,20.35
2023-03-24T10:08:42.202Z,16.85
2023-03-24T10:11:28.275Z,20.30
2023-03-24T10:14:28.399Z,17.65
2023-03-24T10:17:13.093Z,12.73
2023-03-24T10:20:09.827Z,12.45
2023-03-24T10:22:42.755Z,13.38
2023-03-24T10:25:16.730Z,21.08
2023-03-24T10:28:07.630Z,13.82
2023-03-24T10:30:39.511Z,12.65
2023-03-24T10:33:06.868Z,14.77
2023-03-24T10:35:38.238Z,13.50
2023-03-24T10:38:19.131Z,10.13
2023-03-24T10:40:47.561Z,12.57
2023-03-24T10:43:17.571Z,16.00
2023-03-24T10:45:48.341Z,14.10
2023-03-24T10:48:35.082Z,13.10
2023-03-24T10:51:02.468Z,23.00
2023-03-24T10:53:29.609Z,14.93
2023-03-24T10:55:58.803Z,18.13
2023-03-24T10:58:42.959Z,14.60
2023-03-24T11:01:32.735Z,15.00
2023-03-24T11:04:03.812Z,12.90
2023-03-24T11:06:36.771Z,15.23
2023-03-24T11:09:22.149Z,21.05
2023-03-24T11:11:50.717Z,14.93
2023-03-24T11:14:26.962Z,17.20
2023-03-24T11:17:09.931Z,13.93
2023-03-24T11:19:37.694Z,11.10
2023-03-24T11:22:06.738Z,13.90
2023-03-24T11:24:38.103Z,12.32
2023-03-24T11:27:04.933Z,11.90
2023-03-24T11:29:40.067Z,21.52
2023-03-24T11:32:25.130Z,13.70
2023-03-24T11:35:09.433Z,11.80
2023-03-24T11:37:37.418Z,10.88
2023-03-24T11:40:13.495Z,12.35
2023-03-24T11:43:01.131Z,13.90
2023-03-24T11:45:59.182Z,14.43
2023-03-24T11:48:41.676Z,15.77
2023-03-24T11:51:12.449Z,10.52
2023-03-24T11:53:47.457Z,10.07
2023-03-24T11:56:36.111Z,12.35
2023-03-24T11:59:36.626Z,10.27
2023-03-24T12:02:36.810Z,12.40
2023-03-24T12:05:32.460Z,17.05
2023-03-24T12:08:04.876Z,8.93
2023-03-24T12:10:53.916Z,12.20
2023-03-24T12:13:48.856Z,9.82
2023-03-24T12:16:45.237Z,12.13
2023-03-24T12:19:50.718Z,13.13
2023-03-24T12:22:40.722Z,10.77
2023-03-24T12:25:39.376Z,13.32
2023-03-24T12:28:09.293Z,14.13
2023-03-24T12:30:51.558Z,13.23
2023-03-24T12:33:59.400Z,14.43
2023-03-24T12:37:01.572Z,14.60
2023-03-24T12:39:39.375Z,16.35
2023-03-24T12:42:16.771Z,17.65
2023-03-24T12:45:01.747Z,16.73
2023-03-24T12:47:47.813Z,13.07
2023-03-24T12:50:36.474Z,13.02
2023-03-24T12:53:41.512Z,14.73
2023-03-24T12:56:23.466Z,10.93
2023-03-24T12:58:54.779Z,23.98
2023-03-24T13:01:34.322Z,24.92
2023-03-24T13:04:10.306Z,22.10
2023-03-24T13:06:56.883Z,26.67
2023-03-24T13:09:42.321Z,15.85
2023-03-24T13:12:18.862Z,21.77
2023-03-24T13:15:11.721Z,13.98
2023-03-24T13:17:50.778Z,8.38
2023-03-24T13:20:27.157Z,13.70
2023-03-24T13:22:56.556Z,10.68
2023-03-24T13:25:43.207Z,11.90
2023-03-24T13:28:15.347Z,19.55
2023-03-24T13:30:44.690Z,15.57
2023-03-24T13:33:27.624Z,14.38
2023-03-24T13:38:42.320Z,15.93
2023-03-24T13:41:24.509Z,14.10
2023-03-24T13:44:02.361Z,18.80
2023-03-24T13:46:30.235Z,9.82
2023-03-24T13:48:58.900Z,14.70
2023-03-24T13:51:40.118Z,14.55
2023-03-24T13:54:17.861Z,14.70
2023-03-24T13:56:49.788Z,5.88
2023-03-24T13:59:30.156Z,5.75
2023-03-24T14:02:19.491Z,7.40
2023-03-24T14:05:02.967Z,5.03
2023-03-24T14:07:32.715Z,8.05
2023-03-24T14:10:21.016Z,7.28
2023-03-24T14:13:00.012Z,7.68
2023-03-24T14:15:44.995Z,3.97
2023-03-24T14:18:24.224Z,7.05
2023-03-24T14:20:57.813Z,12.48
2023-03-24T14:23:43.973Z,10.65
2023-03-24T14:26:20.639Z,7.75
2023-03-24T14:28:52.747Z,7.03
2023-03-24T14:31:29.348Z,7.68
2023-03-24T14:34:01.953Z,10.32
2023-03-24T14:36:40.045Z,7.38
2023-03-24T14:39:08.994Z,12.57
2023-03-24T14:41:39.324Z,17.05
2023-03-24T14:44:06.300Z,6.13
2023-03-24T14:46:41.391Z,6.55
2023-03-24T14:49:23.380Z,9.10
2023-03-24T14:51:53.504Z,10.23
2023-03-24T14:54:37.966Z,8.15
2023-03-24T14:57:07.615Z,10.45
2023-03-24T14:59:51.387Z,10.13
2023-03-24T15:02:47.873Z,12.45
2023-03-24T15:05:14.906Z,8.23
2023-03-24T15:07:43.759Z,10.50
2023-03-24T15:10:18.798Z,7.60
2023-03-24T15:12:48.194Z,40.63
2023-03-24T15:15:22.638Z,10.27
2023-03-24T15:17:52.035Z,14.32
2023-03-24T15:20:24.349Z,11.18
2023-03-24T15:22:55.238Z,8.60
2023-03-24T15:25:28.038Z,9.50
2023-03-24T15:30:22.743Z,12.02
2023-03-24T15:32:50.709Z,11.80
2023-03-24T15:35:22.785Z,8.68
2023-03-24T15:37:56.024Z,11.35
2023-03-24T15:40:36.637Z,7.43
2023-03-24T15:43:08.050Z,3.63
2023-03-24T15:45:42.911Z,5.38
2023-03-24T15:48:19.654Z,8.82
2023-03-24T15:50:59.403Z,3.10
2023-03-24T15:53:39.276Z,8.73
2023-03-24T15:56:38.436Z,2.85
2023-03-24T15:59:12.008Z,4.05
2023-03-24T16:01:44.029Z,6.85
2023-03-24T16:06:49.191Z,4.90
2023-03-24T16:09:21.703Z,5.75
2023-03-24T16:11:49.026Z,5.90
2023-03-24T16:14:23.125Z,5.15
2023-03-24T16:16:57.436Z,6.93
2023-03-24T16:19:24.862Z,6.85
2023-03-24T16:21:52.099Z,7.50
2023-03-24T16:24:19.353Z,8.05
2023-03-24T16:26:46.026Z,6.15
2023-03-24T16:29:18.913Z,6.60
2023-03-24T16:31:49.064Z,4.53
2023-03-24T16:34:18.918Z,6.82
2023-03-24T16:36:46.844Z,14.60
2023-03-24T16:39:17.182Z,4.47
2023-03-24T16:41:45.398Z,10.77
2023-03-24T16:44:13.531Z,7.22
2023-03-24T16:46:41.659Z,3.80
2023-03-24T16:49:15.809Z,8.32
2023-03-24T16:51:42.982Z,9.68
2023-03-24T16:54:10.465Z,10.93
2023-03-24T16:56:38.092Z,8.68
2023-03-24T16:59:06.325Z,11.90
2023-03-24T17:01:37.506Z,10.45
2023-03-24T17:04:12.576Z,5.97
2023-03-24T17:06:41.767Z,7.30
2023-03-24T17:09:10.289Z,9.50
2023-03-24T17:11:40.687Z,4.53
2023-03-24T17:14:12.378Z,6.03
2023-03-24T17:16:46.605Z,5.20
2023-03-24T17:19:16.693Z,4.78
2023-03-24T17:21:49.242Z,4.30
2023-03-24T17:24:16.880Z,9.23
2023-03-24T17:26:43.689Z,6.80
2023-03-24T17:29:13.599Z,4.82
2023-03-24T17:31:42.792Z,3.22
2023-03-24T17:36:44.273Z,6.93
2023-03-24T17:39:16.715Z,4.75
2023-03-24T17:41:43.510Z,7.78
2023-03-24T17:44:11.109Z,9.43
2023-03-24T17:46:37.844Z,7.47
2023-03-24T17:49:05.320Z,7.55
2023-03-24T17:51:31.965Z,6.80
2023-03-24T17:53:59.986Z,7.85
2023-03-24T17:56:26.858Z,11.63
2023-03-24T17:58:55.246Z,5.18
2023-03-24T18:01:22.050Z,8.65
2023-03-24T18:03:49.940Z,8.40
2023-03-24T18:06:16.995Z,8.40
2023-03-24T18:08:45.010Z,6.30
2023-03-24T18:11:14.206Z,11.77
2023-03-24T18:13:42.314Z,8.80
2023-03-24T18:16:20.842Z,10.15
2023-03-24T18:18:50.590Z,5.53
2023-03-24T18:21:17.678Z,4.85
2023-03-24T18:23:46.999Z,8.88
2023-03-24T18:26:15.613Z,6.35
2023-03-24T18:28:43.418Z,10.07
2023-03-24T18:31:12.582Z,8.30
2023-03-24T18:33:42.980Z,11.05
2023-03-24T18:36:10.692Z,11.35
2023-03-24T18:38:38.874Z,10.15
2023-03-24T18:41:09.586Z,8.38
2023-03-24T18:43:45.195Z,8.60
2023-03-24T18:46:11.938Z,5.63
2023-03-24T18:48:42.011Z,10.90
2023-03-24T18:51:09.240Z,7.32
2023-03-24T18:53:36.642Z,8.32
2023-03-24T18:56:05.417Z,14.82
2023-03-24T18:58:33.893Z,9.40
2023-03-24T19:01:06.781Z,10.82
2023-03-24T19:03:35.913Z,7.78
2023-03-24T19:06:06.755Z,9.82
2023-03-24T19:08:36.103Z,12.60
2023-03-24T19:11:03.262Z,7.30
2023-03-24T19:13:30.936Z,10.63
2023-03-24T19:15:57.547Z,4.93
2023-03-24T19:18:25.563Z,11.32
2023-03-24T19:20:59.326Z,7.82
2023-03-24T19:23:27.256Z,9.60
2023-03-24T19:25:56.868Z,11.48
2023-03-24T19:28:29.728Z,9.57
2023-03-24T19:30:57.490Z,6.68
2023-03-24T19:33:25.719Z,9.80
2023-03-24T19:35:52.768Z,4.30
2023-03-24T19:38:24.156Z,6.28
2023-03-24T19:40:54.139Z,6.97
2023-03-24T19:43:23.028Z,8.52
2023-03-24T19:45:58.500Z,10.52
2023-03-24T19:48:25.818Z,14.05
2023-03-24T19:50:54.200Z,8.13
2023-03-24T19:53:22.338Z,9.38
2023-03-24T19:55:49.866Z,6.93
2023-03-24T19:58:17.945Z,5.93
2023-03-24T20:00:44.617Z,3.72
2023-03-24T20:03:12.256Z,5.47
2023-03-24T20:05:38.956Z,2.35
2023-03-24T20:08:06.466Z,2.63
2023-03-24T20:10:36.075Z,7.60
2023-03-24T20:13:03.652Z,4.40
2023-03-24T20:15:30.531Z,5.05
2023-03-24T20:17:57.954Z,4.75
2023-03-24T20:20:24.787Z,4.47
2023-03-24T20:22:51.732Z,2.50
2023-03-24T20:25:19.535Z,2.53
2023-03-24T20:27:47.312Z,3.55
2023-03-24T20:30:17.685Z,4.35
2023-03-24T20:32:44.448Z,2.70
2023-03-24T20:35:11.993Z,3.17
2023-03-24T20:37:38.691Z,3.50
2023-03-24T20:40:09.474Z,2.28
2023-03-24T20:42:37.387Z,5.00
2023-03-24T20:45:06.826Z,2.38
2023-03-24T20:47:33.924Z,3.63
2023-03-24T20:50:01.541Z,6.10
2023-03-24T20:52:28.960Z,6.43
2023-03-24T20:54:56.750Z,3.28
2023-03-24T20:57:26.175Z,3.95
2023-03-24T20:59:53.380Z,4.57
2023-03-24T21:02:20.150Z,5.55
2023-03-24T21:04:47.320Z,4.85
2023-03-24T21:07:13.997Z,6.88
2023-03-24T21:09:41.316Z,8.77
2023-03-24T21:12:09.271Z,4.70
2023-03-24T21:14:36.701Z,3.67
2023-03-24T21:17:03.777Z,5.38
2023-03-24T21:19:31.127Z,5.85
2023-03-24T21:21:57.746Z,6.97
2023-03-24T21:24:25.191Z,7.57
2023-03-24T21:26:53.736Z,2.17
2023-03-24T21:29:22.750Z,7.20
2023-03-24T21:31:49.749Z,8.85
2023-03-24T21:34:17.297Z,4.10
2023-03-24T21:36:43.960Z,5.50
2023-03-24T21:39:12.194Z,11.75
2023-03-24T21:41:39.574Z,5.90
2023-03-24T21:44:09.517Z,5.45
2023-03-24T21:46:36.903Z,4.15
2023-03-24T21:49:05.335Z,7.15
2023-03-24T21:51:33.982Z,1.85
2023-03-24T21:54:06.140Z,3.67
2023-03-24T21:56:34.233Z,5.07
2023-03-24T21:59:01.813Z,4.82
2023-03-24T22:01:28.743Z,2.83
2023-03-24T22:03:56.095Z,2.17
2023-03-24T22:06:23.192Z,2.45
2023-03-24T22:08:53.341Z,4.63
2023-03-24T22:11:20.186Z,3.55
2023-03-24T22:13:47.585Z,4.60
2023-03-24T22:16:14.830Z,7.15
2023-03-24T22:18:42.579Z,8.27
2023-03-24T22:21:10.860Z,7.65
2023-03-24T22:23:40.110Z,4.28
2023-03-24T22:26:12.904Z,5.55
2023-03-24T22:28:40.702Z,8.32
2023-03-24T22:31:10.167Z,4.95
2023-03-24T22:33:37.812Z,6.00
2023-03-24T22:36:05.451Z,3.92
2023-03-24T22:38:34.559Z,6.35
2023-03-24T22:41:07.251Z,4.60
2023-03-24T22:46:02.678Z,4.65
2023-03-24T22:48:29.654Z,5.03
2023-03-24T22:50:56.540Z,5.18
2023-03-24T22:53:23.610Z,4.88
2023-03-24T22:55:50.643Z,8.93
2023-03-24T22:58:17.753Z,4.97
2023-03-24T23:00:47.173Z,4.90
2023-03-24T23:03:14.714Z,7.15
2023-03-24T23:05:43.297Z,6.88
2023-03-24T23:08:11.809Z,4.88
2023-03-24T23:10:39.925Z,7.47
2023-03-24T23:13:07.648Z,5.60
2023-03-24T23:15:34.802Z,6.00
2023-03-24T23:18:01.420Z,7.70
2023-03-24T23:20:29.521Z,7.03
2023-03-24T23:22:56.954Z,7.13
2023-03-24T23:28:14.292Z,4.35
2023-03-24T23:30:41.178Z,9.32
2023-03-24T23:33:08.309Z,4.32
2023-03-24T23:35:37.676Z,7.00
2023-03-24T23:38:05.588Z,5.65
2023-03-24T23:40:32.218Z,6.03
2023-03-24T23:42:59.140Z,4.90
2023-03-24T23:45:26.561Z,6.53
2023-03-24T23:47:53.655Z,10.25
2023-03-24T23:50:21.764Z,4.65
2023-03-24T23:52:48.804Z,10.60
2023-03-24T23:55:18.380Z,8.40
2023-03-24T23:57:46.555Z,8.98
